createdAt,value
2019-02-23T00:01:01.297Z,99.10
2019-02-23T00:03:30.528Z,99.10
2019-02-23T00:05:59.858Z,99.20
2019-02-23T00:08:29.085Z,99.30
2019-02-23T00:10:58.328Z,99.50
2019-02-23T00:13:27.490Z,99.50
2019-02-23T00:15:56.782Z,99.60
2019-02-23T00:18:25.984Z,99.70
2019-02-23T00:20:55.242Z,99.70
2019-02-23T00:23:24.468Z,99.70
2019-02-23T00:25:53.713Z,99.70
2019-02-23T00:28:22.947Z,99.70
2019-02-23T00:30:52.168Z,99.70
2019-02-23T00:33:21.413Z,99.80
2019-02-23T00:35:50.758Z,99.80
2019-02-23T00:38:20.050Z,99.90
2019-02-23T00:40:49.319Z,99.90
2019-02-23T00:43:18.562Z,99.80
2019-02-23T00:45:47.723Z,99.80
2019-02-23T00:48:16.903Z,99.90
2019-02-23T00:50:46.121Z,99.90
2019-02-23T00:53:15.381Z,99.90
2019-02-23T00:55:44.599Z,99.90
2019-02-23T00:58:13.857Z,99.90
2019-02-23T01:00:43.174Z,99.90
2019-02-23T01:03:12.418Z,99.70
2019-02-23T01:05:41.640Z,99.80
2019-02-23T01:08:10.814Z,99.90
2019-02-23T01:10:40.036Z,99.90
2019-02-23T01:13:09.271Z,99.90
2019-02-23T01:15:38.694Z,99.90
2019-02-23T01:18:07.982Z,99.50
2019-02-23T01:20:37.220Z,99.80
2019-02-23T01:23:06.505Z,99.70
2019-02-23T01:25:35.737Z,99.80
2019-02-23T01:28:04.998Z,99.90
2019-02-23T01:30:34.219Z,99.90
2019-02-23T01:33:03.551Z,99.90
2019-02-23T01:35:33.034Z,99.90
2019-02-23T01:38:02.381Z,99.90
2019-02-23T01:40:31.611Z,99.90
2019-02-23T01:43:00.883Z,99.90
2019-02-23T01:45:30.208Z,99.90
2019-02-23T01:47:59.462Z,99.90
2019-02-23T01:50:28.801Z,99.90
2019-02-23T01:55:25.421Z,99.90
2019-02-23T01:57:54.671Z,99.90
2019-02-23T02:00:24.087Z,99.90
2019-02-23T02:02:53.338Z,99.70
2019-02-23T02:05:22.760Z,99.60
2019-02-23T02:07:52.009Z,99.70
2019-02-23T02:10:21.150Z,99.90
2019-02-23T02:12:50.378Z,99.70
2019-02-23T02:15:19.547Z,99.90
2019-02-23T02:17:48.774Z,99.30
2019-02-23T02:20:18.042Z,99.20
2019-02-23T02:22:47.267Z,99.10
2019-02-23T02:25:16.530Z,99.00
2019-02-23T02:27:45.770Z,98.90
2019-02-23T02:30:15.027Z,99.10
2019-02-23T02:32:44.326Z,98.80
2019-02-23T02:35:13.585Z,98.70
2019-02-23T02:37:42.845Z,98.10
2019-02-23T02:40:12.092Z,98.10
2019-02-23T02:42:41.321Z,98.20
2019-02-23T02:45:11.156Z,98.40
2019-02-23T02:47:40.447Z,98.60
2019-02-23T02:50:23.364Z,98.50
2019-02-23T02:52:41.593Z,98.20
2019-02-23T02:55:10.800Z,98.30
2019-02-23T02:57:40.017Z,98.30
2019-02-23T03:00:11.007Z,98.20
2019-02-23T03:02:40.226Z,97.90
2019-02-23T03:05:09.686Z,97.80
2019-02-23T03:07:38.920Z,97.60
2019-02-23T03:10:08.734Z,97.50
2019-02-23T03:12:37.907Z,97.60
2019-02-23T03:15:07.638Z,97.80
2019-02-23T03:17:36.861Z,97.60
2019-02-23T03:20:07.545Z,97.60
2019-02-23T03:22:36.792Z,97.70
2019-02-23T03:25:06.184Z,97.50
2019-02-23T03:27:35.383Z,97.50
2019-02-23T03:30:05.066Z,97.40
2019-02-23T03:32:34.369Z,97.40
2019-02-23T03:35:03.566Z,97.70
2019-02-23T03:37:32.802Z,97.30
2019-02-23T03:40:02.058Z,97.40
2019-02-23T03:42:31.285Z,97.30
2019-02-23T03:45:00.550Z,97.20
2019-02-23T03:47:29.770Z,97.40
2019-02-23T03:49:59.066Z,97.50
2019-02-23T03:52:28.251Z,97.50
2019-02-23T03:54:57.482Z,97.50
2019-02-23T03:57:26.661Z,97.20
2019-02-23T03:59:55.895Z,97.00
2019-02-23T04:02:25.222Z,97.30
2019-02-23T04:04:54.459Z,97.00
2019-02-23T04:07:23.722Z,97.10
2019-02-23T04:09:53.022Z,96.80
2019-02-23T04:12:22.208Z,96.80
2019-02-23T04:14:51.383Z,97.00
2019-02-23T04:17:20.626Z,97.10
2019-02-23T04:19:49.861Z,97.10
2019-02-23T04:22:19.106Z,97.10
2019-02-23T04:24:48.345Z,97.10
2019-02-23T04:27:17.666Z,97.10
2019-02-23T04:29:47.163Z,97.00
2019-02-23T04:32:16.517Z,97.00
2019-02-23T04:34:45.761Z,97.00
2019-02-23T04:37:15.035Z,96.80
2019-02-23T04:39:44.352Z,97.00
2019-02-23T04:42:13.602Z,97.00
2019-02-23T04:44:42.830Z,97.10
2019-02-23T04:47:12.106Z,97.00
2019-02-23T04:49:41.340Z,97.00
2019-02-23T04:52:10.646Z,97.20
2019-02-23T04:54:40.336Z,97.30
2019-02-23T04:57:09.592Z,97.40
2019-02-23T04:59:38.921Z,97.60
2019-02-23T05:02:08.184Z,97.70
2019-02-23T05:04:37.440Z,97.50
2019-02-23T05:07:06.609Z,97.50
2019-02-23T05:09:35.927Z,97.70
2019-02-23T05:12:05.099Z,97.60
2019-02-23T05:14:34.281Z,97.70
2019-02-23T05:17:03.652Z,97.60
2019-02-23T05:19:32.916Z,97.60
2019-02-23T05:22:02.225Z,97.60
2019-02-23T05:24:31.473Z,97.70
2019-02-23T05:27:00.734Z,98.10
2019-02-23T05:29:30.001Z,97.50
2019-02-23T05:31:59.324Z,97.60
2019-02-23T05:34:28.662Z,97.70
2019-02-23T05:36:57.905Z,97.80
2019-02-23T05:39:27.225Z,97.90
2019-02-23T05:41:56.381Z,97.90
2019-02-23T05:44:25.641Z,98.10
2019-02-23T05:46:54.887Z,98.20
2019-02-23T05:49:24.242Z,98.30
2019-02-23T05:51:53.492Z,98.40
2019-02-23T05:54:22.743Z,98.50
2019-02-23T05:56:51.915Z,98.50
2019-02-23T05:59:21.243Z,98.50
2019-02-23T06:01:50.479Z,98.60
2019-02-23T06:04:19.679Z,98.60
2019-02-23T06:06:48.917Z,98.70
2019-02-23T06:09:18.175Z,98.70
2019-02-23T06:11:47.449Z,98.90
2019-02-23T06:14:16.714Z,99.00
2019-02-23T06:16:46.146Z,99.00
2019-02-23T06:19:15.439Z,99.10
2019-02-23T06:21:53.689Z,99.10
2019-02-23T06:24:15.666Z,99.10
2019-02-23T06:26:44.991Z,99.10
2019-02-23T06:29:14.239Z,99.20
2019-02-23T06:31:43.499Z,99.20
2019-02-23T06:34:16.443Z,99.10
2019-02-23T06:36:43.634Z,99.00
2019-02-23T06:39:12.874Z,99.00
2019-02-23T06:41:42.945Z,99.20
2019-02-23T06:44:12.242Z,99.30
2019-02-23T06:46:41.515Z,99.30
2019-02-23T06:49:10.755Z,99.20
2019-02-23T06:51:40.411Z,99.10
2019-02-23T06:54:09.679Z,99.10
2019-02-23T06:56:38.943Z,99.00
2019-02-23T06:59:08.176Z,98.90
2019-02-23T07:01:37.452Z,98.80
2019-02-23T07:04:06.687Z,98.90
2019-02-23T07:06:35.949Z,98.80
2019-02-23T07:09:06.944Z,98.80
2019-02-23T07:11:36.200Z,98.80
2019-02-23T07:14:05.511Z,98.60
2019-02-23T07:16:34.843Z,98.30
2019-02-23T07:19:04.070Z,98.10
2019-02-23T07:21:33.347Z,98.00
2019-02-23T07:24:02.584Z,98.40
2019-02-23T07:26:31.846Z,97.50
2019-02-23T07:29:01.120Z,97.60
2019-02-23T07:31:30.367Z,97.10
2019-02-23T07:33:59.647Z,96.80
2019-02-23T07:36:28.947Z,96.60
2019-02-23T07:38:58.159Z,96.70
2019-02-23T07:41:27.383Z,96.00
2019-02-23T07:43:56.650Z,96.50
2019-02-23T07:46:25.895Z,95.70
2019-02-23T07:48:55.145Z,95.60
2019-02-23T07:51:24.379Z,95.30
2019-02-23T07:53:53.627Z,95.20
2019-02-23T07:56:22.895Z,94.90
2019-02-23T07:58:52.163Z,94.50
2019-02-23T08:01:21.499Z,94.30
2019-02-23T08:03:50.759Z,94.20
2019-02-23T08:06:19.925Z,94.20
2019-02-23T08:08:49.191Z,94.00
2019-02-23T08:11:18.494Z,93.50
2019-02-23T08:13:47.753Z,93.10
2019-02-23T08:16:17.092Z,93.60
2019-02-23T08:18:46.350Z,93.00
2019-02-23T08:21:15.568Z,93.00
2019-02-23T08:23:44.819Z,92.80
2019-02-23T08:26:14.063Z,92.40
2019-02-23T08:28:43.326Z,92.10
2019-02-23T08:31:13.392Z,91.60
2019-02-23T08:33:42.891Z,91.20
2019-02-23T08:36:12.203Z,91.30
2019-02-23T08:38:41.459Z,90.50
2019-02-23T08:41:10.696Z,90.20
2019-02-23T08:43:39.925Z,90.10
2019-02-23T08:46:09.179Z,89.40
2019-02-23T08:48:38.414Z,89.40
2019-02-23T08:51:07.671Z,89.20
2019-02-23T08:53:36.904Z,89.10
2019-02-23T08:56:06.205Z,89.30
2019-02-23T08:58:35.510Z,88.20
2019-02-23T09:01:05.044Z,88.20
2019-02-23T09:03:34.279Z,86.30
2019-02-23T09:06:03.551Z,85.30
2019-02-23T09:08:32.698Z,85.50
2019-02-23T09:11:01.955Z,84.60
2019-02-23T09:13:31.255Z,83.80
2019-02-23T09:16:00.518Z,83.70
2019-02-23T09:18:29.751Z,83.50
2019-02-23T09:20:59.010Z,82.90
2019-02-23T09:23:28.302Z,82.10
2019-02-23T09:25:57.915Z,82.50
2019-02-23T09:28:27.293Z,81.40
2019-02-23T09:30:56.472Z,81.40
2019-02-23T09:33:25.702Z,80.10
2019-02-23T09:35:55.004Z,88.30
2019-02-23T09:38:24.306Z,91.60
2019-02-23T09:40:53.623Z,82.30
2019-02-23T09:43:22.851Z,86.00
2019-02-23T09:45:52.107Z,83.50
2019-02-23T09:48:21.382Z,73.40
2019-02-23T09:50:58.627Z,76.20
2019-02-23T09:53:27.861Z,70.70
2019-02-23T09:56:26.060Z,78.20
2019-02-23T09:58:55.300Z,70.80
2019-02-23T10:01:24.624Z,70.00
2019-02-23T10:03:53.852Z,68.60
2019-02-23T10:06:23.106Z,68.70
2019-02-23T10:08:52.413Z,67.10
2019-02-23T10:11:21.716Z,66.50
2019-02-23T10:13:51.076Z,66.00
2019-02-23T10:16:20.360Z,67.10
2019-02-23T10:18:49.675Z,67.20
2019-02-23T10:21:19.020Z,67.50
2019-02-23T10:23:48.250Z,67.20
2019-02-23T10:26:17.506Z,67.50
2019-02-23T10:28:46.765Z,69.00
2019-02-23T10:31:16.135Z,67.80
2019-02-23T10:33:47.647Z,68.70
2019-02-23T10:36:16.355Z,66.90
2019-02-23T10:38:45.698Z,65.80
2019-02-23T10:41:14.932Z,66.10
2019-02-23T10:43:44.204Z,65.50
2019-02-23T10:46:13.443Z,64.20
2019-02-23T10:48:42.784Z,64.50
2019-02-23T10:51:12.039Z,65.30
2019-02-23T10:53:41.339Z,65.90
2019-02-23T10:56:10.991Z,63.50
2019-02-23T10:58:40.345Z,63.70
2019-02-23T11:01:09.583Z,62.30
2019-02-23T11:03:38.792Z,63.00
2019-02-23T11:06:08.420Z,64.00
2019-02-23T11:08:38.363Z,63.60
2019-02-23T11:11:07.720Z,61.90
2019-02-23T11:13:36.974Z,59.10
2019-02-23T11:16:06.225Z,59.80
2019-02-23T11:18:35.502Z,59.00
2019-02-23T11:21:04.726Z,59.00
2019-02-23T11:23:43.685Z,58.80
2019-02-23T11:26:05.393Z,58.40
2019-02-23T11:28:34.675Z,58.50
2019-02-23T11:31:03.938Z,58.40
2019-02-23T11:33:33.262Z,58.00
2019-02-23T11:36:02.590Z,59.10
2019-02-23T11:38:31.947Z,57.70
2019-02-23T11:41:01.128Z,57.80
2019-02-23T11:43:30.470Z,62.70
2019-02-23T11:45:59.820Z,65.70
2019-02-23T11:48:29.111Z,59.30
2019-02-23T11:50:58.407Z,57.80
2019-02-23T11:53:27.687Z,52.30
2019-02-23T11:55:57.050Z,52.70
2019-02-23T11:58:26.210Z,53.70
2019-02-23T12:00:55.503Z,53.10
2019-02-23T12:03:24.802Z,50.30
2019-02-23T12:05:54.068Z,52.70
2019-02-23T12:08:23.302Z,52.00
2019-02-23T12:10:52.571Z,51.80
2019-02-23T12:13:21.807Z,51.90
2019-02-23T12:15:51.141Z,50.40
2019-02-23T12:18:20.387Z,50.00
2019-02-23T12:20:49.656Z,52.00
2019-02-23T12:23:18.908Z,49.50
2019-02-23T12:25:48.181Z,48.90
2019-02-23T12:28:17.479Z,49.30
2019-02-23T12:30:47.234Z,49.00
2019-02-23T12:33:16.547Z,48.10
2019-02-23T12:35:45.890Z,47.70
2019-02-23T12:38:15.223Z,48.00
2019-02-23T12:40:44.543Z,48.70
2019-02-23T12:43:13.777Z,49.40
2019-02-23T12:45:43.069Z,49.20
2019-02-23T12:48:12.395Z,50.00
2019-02-23T12:50:41.739Z,47.80
2019-02-23T12:53:11.056Z,48.80
2019-02-23T12:55:40.402Z,48.40
2019-02-23T12:58:09.659Z,49.00
2019-02-23T13:00:38.943Z,49.10
2019-02-23T13:03:08.297Z,49.30
2019-02-23T13:05:37.548Z,48.60
2019-02-23T13:08:06.896Z,49.30
2019-02-23T13:10:36.156Z,49.50
2019-02-23T13:13:39.285Z,49.20
2019-02-23T13:16:34.645Z,49.90
2019-02-23T13:20:03.202Z,49.00
2019-02-23T13:22:51.798Z,49.50
2019-02-23T13:25:59.554Z,52.70
2019-02-23T13:29:15.178Z,50.00
2019-02-23T13:32:32.283Z,48.90
2019-02-23T13:35:37.555Z,46.30
2019-02-23T13:38:23.718Z,48.50
2019-02-23T13:41:16.235Z,46.30
2019-02-23T13:44:23.003Z,48.10
2019-02-23T13:47:22.355Z,45.40
2019-02-23T13:50:38.306Z,45.20
2019-02-23T13:53:45.053Z,45.10
2019-02-23T13:56:52.489Z,45.60
2019-02-23T14:00:16.908Z,44.80
2019-02-23T14:03:38.975Z,44.00
2019-02-23T14:06:24.202Z,45.10
2019-02-23T14:09:39.499Z,45.90
2019-02-23T14:12:58.870Z,43.70
2019-02-23T14:16:24.443Z,44.60
2019-02-23T14:19:12.235Z,46.00
2019-02-23T14:22:23.472Z,44.70
2019-02-23T14:25:17.719Z,43.90
2019-02-23T14:27:59.358Z,42.10
2019-02-23T14:31:15.762Z,41.60
2019-02-23T14:34:38.463Z,41.70
2019-02-23T14:37:45.848Z,41.80
2019-02-23T14:40:52.836Z,42.20
2019-02-23T14:43:56.063Z,42.70
2019-02-23T14:47:04.792Z,41.80
2019-02-23T14:50:21.254Z,42.10
2019-02-23T14:53:28.710Z,41.60
2019-02-23T14:56:32.026Z,41.70
2019-02-23T14:59:25.967Z,41.20
2019-02-23T15:02:45.193Z,42.40
2019-02-23T15:05:49.574Z,40.10
2019-02-23T15:09:03.943Z,40.60
2019-02-23T15:12:25.446Z,39.60
2019-02-23T15:15:08.182Z,41.20
2019-02-23T15:18:24.307Z,43.60
2019-02-23T15:21:42.660Z,41.00
2019-02-23T15:24:53.967Z,41.90
2019-02-23T15:28:10.084Z,41.80
2019-02-23T15:31:32.432Z,41.50
2019-02-23T15:34:32.884Z,43.10
2019-02-23T15:37:17.674Z,42.20
2019-02-23T15:40:30.919Z,40.70
2019-02-23T15:43:30.932Z,42.20
2019-02-23T15:46:16.077Z,43.00
2019-02-23T15:49:10.248Z,43.40
2019-02-23T15:51:39.614Z,43.30
2019-02-23T15:54:08.898Z,43.60
2019-02-23T15:56:38.328Z,43.70
2019-02-23T15:59:07.580Z,45.30
2019-02-23T16:01:36.854Z,44.80
2019-02-23T16:04:06.106Z,44.70
2019-02-23T16:06:35.451Z,45.40
2019-02-23T16:09:05.544Z,45.20
2019-02-23T16:11:34.819Z,44.80
2019-02-23T16:14:04.103Z,44.30
2019-02-23T16:16:33.365Z,44.50
2019-02-23T16:19:02.563Z,45.30
2019-02-23T16:21:31.896Z,46.60
2019-02-23T16:24:01.151Z,47.30
2019-02-23T16:26:30.508Z,46.30
2019-02-23T16:28:59.796Z,46.60
2019-02-23T16:31:29.148Z,47.50
2019-02-23T16:33:58.423Z,47.70
2019-02-23T16:36:27.734Z,47.00
2019-02-23T16:38:56.995Z,47.40
2019-02-23T16:41:26.248Z,48.50
2019-02-23T16:43:55.549Z,48.20
2019-02-23T16:46:24.856Z,47.90
2019-02-23T16:48:54.140Z,48.80
2019-02-23T16:51:23.456Z,48.70
2019-02-23T16:53:52.850Z,49.20
2019-02-23T16:56:22.127Z,49.80
2019-02-23T16:58:51.450Z,50.90
2019-02-23T17:01:20.851Z,51.00
2019-02-23T17:03:50.206Z,51.80
2019-02-23T17:06:19.483Z,51.80
2019-02-23T17:08:48.775Z,51.80
2019-02-23T17:11:18.096Z,52.50
2019-02-23T17:13:47.529Z,53.00
2019-02-23T17:16:16.817Z,52.80
2019-02-23T17:18:46.086Z,53.40
2019-02-23T17:21:15.349Z,53.20
2019-02-23T17:23:44.720Z,53.40
2019-02-23T17:26:13.987Z,53.40
2019-02-23T17:28:43.324Z,53.60
2019-02-23T17:31:12.658Z,54.20
2019-02-23T17:33:41.920Z,53.90
2019-02-23T17:36:11.252Z,53.40
2019-02-23T17:38:40.627Z,53.40
2019-02-23T17:41:09.947Z,53.40
2019-02-23T17:43:40.250Z,53.40
2019-02-23T17:46:09.662Z,53.20
2019-02-23T17:48:39.000Z,52.90
2019-02-23T17:51:08.319Z,52.90
2019-02-23T17:53:37.662Z,52.90
2019-02-23T17:56:12.190Z,53.00
2019-02-23T17:58:37.990Z,52.90
2019-02-23T18:01:07.286Z,52.60
2019-02-23T18:03:36.835Z,52.80
2019-02-23T18:06:06.108Z,53.40
2019-02-23T18:08:35.487Z,53.20
2019-02-23T18:11:04.787Z,53.30
2019-02-23T18:13:34.084Z,53.20
2019-02-23T18:16:03.357Z,53.00
2019-02-23T18:18:32.590Z,53.10
2019-02-23T18:21:01.869Z,52.90
2019-02-23T18:23:31.184Z,53.00
2019-02-23T18:26:00.534Z,52.80
2019-02-23T18:28:29.804Z,53.10
2019-02-23T18:30:59.127Z,53.60
2019-02-23T18:33:28.832Z,53.10
2019-02-23T18:35:58.129Z,53.20
2019-02-23T18:38:27.517Z,53.10
2019-02-23T18:40:56.807Z,53.10
2019-02-23T18:43:26.046Z,53.60
2019-02-23T18:45:55.324Z,53.50
2019-02-23T18:48:24.641Z,53.50
2019-02-23T18:50:53.904Z,53.80
2019-02-23T18:53:23.142Z,53.90
2019-02-23T18:55:52.514Z,54.30
2019-02-23T18:58:21.770Z,54.50
2019-02-23T19:00:51.056Z,54.60
2019-02-23T19:03:20.300Z,54.30
2019-02-23T19:05:50.090Z,54.40
2019-02-23T19:08:19.684Z,54.70
2019-02-23T19:10:48.968Z,54.90
2019-02-23T19:13:18.305Z,55.20
2019-02-23T19:15:47.617Z,55.20
2019-02-23T19:18:16.899Z,55.10
2019-02-23T19:20:46.139Z,55.20
2019-02-23T19:23:15.423Z,55.30
2019-02-23T19:25:44.753Z,55.30
2019-02-23T19:28:14.027Z,55.80
2019-02-23T19:30:43.275Z,55.80
2019-02-23T19:33:12.633Z,56.00
2019-02-23T19:35:41.869Z,56.20
2019-02-23T19:38:11.147Z,56.50
2019-02-23T19:40:40.394Z,56.80
2019-02-23T19:43:09.703Z,57.40
2019-02-23T19:45:38.949Z,57.00
2019-02-23T19:48:08.313Z,57.40
2019-02-23T19:50:44.379Z,57.00
2019-02-23T19:53:13.790Z,56.80
2019-02-23T19:55:43.042Z,56.60
2019-02-23T19:58:12.415Z,56.60
2019-02-23T20:00:41.672Z,56.60
2019-02-23T20:03:11.022Z,56.90
2019-02-23T20:05:40.289Z,57.00
2019-02-23T20:08:09.663Z,57.10
2019-02-23T20:10:38.934Z,57.20
2019-02-23T20:13:08.286Z,57.20
2019-02-23T20:15:37.543Z,57.20
2019-02-23T20:18:06.843Z,57.30
2019-02-23T20:20:36.202Z,56.90
2019-02-23T20:23:05.469Z,56.90
2019-02-23T20:25:34.844Z,56.50
2019-02-23T20:28:04.204Z,56.60
2019-02-23T20:30:33.504Z,56.30
2019-02-23T20:33:02.756Z,56.30
2019-02-23T20:35:32.206Z,56.10
2019-02-23T20:38:01.552Z,55.90
2019-02-23T20:40:30.816Z,55.90
2019-02-23T20:43:00.091Z,55.60
2019-02-23T20:45:29.371Z,55.40
2019-02-23T20:47:58.716Z,55.00
2019-02-23T20:50:27.989Z,55.00
2019-02-23T20:52:57.234Z,55.10
2019-02-23T20:55:26.477Z,54.90
2019-02-23T20:57:55.814Z,54.40
2019-02-23T21:00:26.742Z,54.30
2019-02-23T21:02:56.136Z,54.40
2019-02-23T21:05:25.499Z,54.20
2019-02-23T21:07:54.920Z,54.20
2019-02-23T21:10:24.326Z,54.30
2019-02-23T21:12:53.711Z,54.20
2019-02-23T21:15:23.034Z,55.10
2019-02-23T21:17:52.270Z,54.70
2019-02-23T21:20:21.551Z,54.30
2019-02-23T21:22:50.786Z,54.30
2019-02-23T21:25:20.051Z,54.00
2019-02-23T21:27:49.294Z,53.90
2019-02-23T21:30:18.579Z,53.80
2019-02-23T21:32:47.843Z,53.60
2019-02-23T21:35:17.123Z,53.40
2019-02-23T21:37:46.456Z,53.50
2019-02-23T21:40:15.798Z,53.80
2019-02-23T21:42:45.050Z,53.30
2019-02-23T21:45:14.355Z,53.80
2019-02-23T21:47:43.602Z,53.50
2019-02-23T21:50:12.939Z,53.30
2019-02-23T21:52:42.176Z,53.40
2019-02-23T21:55:11.431Z,53.30
2019-02-23T21:57:40.703Z,53.20
2019-02-23T22:00:10.144Z,53.40
2019-02-23T22:02:39.450Z,53.20
2019-02-23T22:05:12.269Z,53.40
2019-02-23T22:07:39.702Z,53.30
2019-02-23T22:10:08.973Z,53.40
2019-02-23T22:12:38.319Z,53.30
2019-02-23T22:15:07.780Z,53.50
2019-02-23T22:17:37.127Z,53.10
2019-02-23T22:20:06.548Z,53.00
2019-02-23T22:22:35.847Z,53.10
2019-02-23T22:25:05.292Z,53.00
2019-02-23T22:27:34.634Z,52.80
2019-02-23T22:30:03.975Z,52.90
2019-02-23T22:32:33.323Z,52.90
2019-02-23T22:35:02.620Z,52.80
2019-02-23T22:37:33.552Z,52.90
2019-02-23T22:40:03.004Z,53.40
2019-02-23T22:42:32.374Z,72.40
2019-02-23T22:45:01.624Z,68.20
2019-02-23T22:47:30.823Z,57.20
2019-02-23T22:50:00.255Z,50.10
2019-02-23T22:52:29.570Z,49.60
2019-02-23T22:54:58.854Z,50.10
2019-02-23T22:57:28.176Z,50.50
2019-02-23T22:59:57.435Z,50.80
2019-02-23T23:02:26.736Z,51.30
2019-02-23T23:04:55.987Z,51.50
2019-02-23T23:07:25.266Z,52.00
2019-02-23T23:09:54.503Z,52.20
2019-02-23T23:12:23.777Z,52.40
2019-02-23T23:14:53.104Z,52.50
2019-02-23T23:17:22.379Z,52.50
2019-02-23T23:19:51.635Z,52.50
2019-02-23T23:22:20.984Z,52.30
2019-02-23T23:24:50.212Z,52.40
2019-02-23T23:27:19.458Z,52.20
2019-02-23T23:29:48.746Z,52.20
2019-02-23T23:32:18.016Z,52.50
2019-02-23T23:34:47.371Z,52.90
2019-02-23T23:37:16.642Z,52.00
2019-02-23T23:39:45.971Z,52.10
2019-02-23T23:42:15.227Z,51.70
2019-02-23T23:44:44.473Z,51.80
2019-02-23T23:47:13.792Z,51.40
2019-02-23T23:49:43.084Z,51.20
2019-02-23T23:52:12.403Z,50.80
2019-02-23T23:54:41.667Z,50.80
2019-02-23T23:57:10.943Z,50.60
2019-02-23T23:59:40.214Z,50.50
